Time;durP1;ratioP1;P1;durP2;ratioP2;P2;SDS_P1;SDS_P2;PMS_P1;PMS_P2;Temp;Humidity;BMP_temperature;BMP_pressure;BME280_temperature;BME280_humidity;BME280_pressure;Samples;Min_cycle;Max_cycle;Signal;HPM_P1;HPM_P2
2021/11/29 00:01:58;;;;;;;8.50;5.00;;;;;;;11.67;81.28;98172.16;24425;1360;3026836;-71
2021/11/29 00:04:27;;;;;;;8.90;5.20;;;;;;;11.38;82.68;98170.39;24418;1357;3053059;-70
2021/11/29 00:07:16;;;;;;;6.90;4.50;;;;;;;11.33;83.10;98178.50;24393;1360;3055662;-68
2021/11/29 00:09:48;;;;;;;6.20;4.30;;;;;;;11.46;83.12;98188.46;24458;1357;3026362;-67
2021/11/29 00:12:37;;;;;;;6.70;4.90;;;;;;;11.76;81.77;98177.19;24387;1357;3068858;-70
2021/11/29 00:15:09;;;;;;;10.80;4.80;;;;;;;11.92;80.91;98176.81;24426;1360;3026574;-68
2021/11/29 00:18:01;;;;;;;5.80;4.80;;;;;;;11.55;82.16;98180.38;24489;1362;3052410;-73
2021/11/29 00:20:30;;;;;;;5.90;4.10;;;;;;;11.28;83.40;98182.05;24409;1357;3026982;-69
2021/11/29 00:23:19;;;;;;;8.70;5.50;;;;;;;11.76;82.30;98180.83;24456;1361;3057865;-65
2021/11/29 00:25:50;;;;;;;8.40;6.00;;;;;;;11.66;82.32;98190.14;24393;1357;3026574;-71
2021/11/29 00:28:39;;;;;;;13.20;7.30;;;;;;;11.48;83.00;98196.55;24398;1363;3052055;-65
2021/11/29 00:31:09;;;;;;;18.60;7.60;;;;;;;11.26;83.98;98198.04;24464;1357;3026494;-67
2021/11/29 00:33:40;;;;;;;10.40;5.40;;;;;;;11.21;84.52;98193.73;24429;1361;3026980;-68
2021/11/29 00:36:09;;;;;;;12.30;6.50;;;;;;;11.61;83.16;98186.48;24384;1357;3030474;-68
2021/11/29 00:38:38;;;;;;;11.80;7.20;;;;;;;11.77;82.27;98186.70;24452;1357;3050248;-73
2021/11/29 00:41:07;;;;;;;14.50;7.90;;;;;;;11.79;81.84;98181.64;24407;1356;3027845;-70
2021/11/29 00:43:37;;;;;;;15.50;8.20;;;;;;;11.58;82.73;98180.40;24458;1360;3055360;-69
2021/11/29 00:46:07;;;;;;;12.20;6.50;;;;;;;11.50;82.99;98188.17;24436;1361;3030466;-68
2021/11/29 00:48:36;;;;;;;9.10;5.80;;;;;;;11.74;82.51;98187.34;24429;1360;3051235;-65
2021/11/29 00:51:05;;;;;;;11.30;7.80;;;;;;;12.01;81.24;98182.22;24512;1357;3026601;-67
2021/11/29 00:53:35;;;;;;;11.60;6.70;;;;;;;11.92;81.27;98178.06;24473;1357;3059086;-66
2021/11/29 00:56:04;;;;;;;14.40;8.20;;;;;;;11.77;81.83;98176.05;24429;1357;3028698;-71
2021/11/29 00:58:34;;;;;;;13.10;7.00;;;;;;;11.65;82.40;98176.36;24420;1361;3054925;-64
2021/11/29 01:01:03;;;;;;;9.90;5.80;;;;;;;11.60;82.79;98174.34;24394;1357;3026973;-66
2021/11/29 01:03:32;;;;;;;11.00;6.80;;;;;;;11.89;81.84;98177.99;24449;1362;3054202;-70
2021/11/29 01:06:01;;;;;;;10.00;7.50;;;;;;;12.00;81.57;98179.48;24386;1359;3026813;-71
2021/11/29 01:08:35;;;;;;;;;;;;;;;11.99;81.36;98175.41;24427;1357;3059530;-65
2021/11/29 01:11:05;;;;;;;17.20;7.60;;;;;;;11.86;81.76;98176.29;24400;1359;3026294;-69
2021/11/29 01:13:35;;;;;;;9.10;5.90;;;;;;;11.81;82.10;98169.50;24392;1355;3027122;-69
2021/11/29 01:16:04;;;;;;;10.90;7.00;;;;;;;12.04;81.53;98162.85;24442;1357;3026634;-70
2021/11/29 01:18:34;;;;;;;16.20;7.70;;;;;;;12.07;81.36;98162.45;24387;1357;3026738;-69
2021/11/29 01:21:03;;;;;;;13.60;7.50;;;;;;;12.24;80.76;98158.28;24407;1360;3026545;-70
2021/11/29 01:23:32;;;;;;;12.40;6.80;;;;;;;12.04;81.11;98164.04;24403;1357;3050245;-71
2021/11/29 01:26:01;;;;;;;19.00;7.10;;;;;;;11.90;81.41;98160.02;24423;1357;3027428;-74
2021/11/29 01:28:31;;;;;;;8.60;6.10;;;;;;;11.71;82.48;98157.58;24402;1357;3055924;-72
2021/11/29 01:31:00;;;;;;;9.00;5.50;;;;;;;12.19;81.40;98146.77;24384;1359;3028650;-63
2021/11/29 01:33:29;;;;;;;12.30;7.20;;;;;;;12.60;79.68;98136.33;24417;1361;3050956;-66
2021/11/29 01:35:58;;;;;;;20.10;7.40;;;;;;;12.47;79.66;98132.91;24426;1357;3026531;-66
2021/11/29 01:38:27;;;;;;;22.70;6.90;;;;;;;12.26;80.39;98134.11;24409;1354;3061638;-66
2021/11/29 01:40:56;;;;;;;18.10;7.30;;;;;;;11.99;81.43;98137.11;24421;1354;3026826;-66
2021/11/29 01:43:25;;;;;;;9.90;6.40;;;;;;;11.78;82.56;98138.77;24412;1357;3051944;-70
2021/11/29 01:45:55;;;;;;;11.20;6.60;;;;;;;12.08;81.91;98132.64;24441;1354;3026445;-75
2021/11/29 01:48:25;;;;;;;14.80;6.70;;;;;;;12.55;79.90;98120.23;24450;1354;3052737;-68
2021/11/29 01:50:56;;;;;;;22.90;7.50;;;;;;;12.42;79.88;98117.90;24431;1353;3026490;-72
2021/11/29 01:53:26;;;;;;;33.50;7.20;;;;;;;12.23;80.79;98112.86;24504;1360;3026193;-67
2021/11/29 01:55:58;;;;;;;22.40;7.60;;;;;;;12.09;81.25;98109.02;24420;1360;3027261;-67
2021/11/29 01:58:28;;;;;;;8.30;6.20;;;;;;;11.69;82.87;98116.55;24419;1363;3026757;-69
2021/11/29 02:00:59;;;;;;;9.50;6.30;;;;;;;12.14;81.88;98110.00;24446;1354;3026906;-72
2021/11/29 02:03:28;;;;;;;9.90;6.90;;;;;;;12.33;80.99;98105.04;24448;1354;3028849;-67
2021/11/29 02:05:59;;;;;;;11.50;7.10;;;;;;;12.38;80.58;98098.55;24422;1357;3026367;-65
2021/11/29 02:08:28;;;;;;;23.20;7.90;;;;;;;12.10;81.45;98103.05;24473;1353;3026580;-65
2021/11/29 02:10:57;;;;;;;14.50;7.50;;;;;;;11.96;81.97;98099.84;24451;1354;3026519;-69
2021/11/29 02:13:27;;;;;;;7.40;5.60;;;;;;;11.73;82.68;98104.64;24431;1356;3048781;-66
2021/11/29 02:15:56;;;;;;;11.00;7.00;;;;;;;12.19;81.73;98095.20;24456;1351;3028320;-70
2021/11/29 02:18:27;;;;;;;10.80;7.50;;;;;;;12.39;80.88;98092.20;24414;1353;3070653;-72
2021/11/29 02:21:11;;;;;;;16.10;7.10;;;;;;;12.46;80.07;98098.25;24486;1350;3026575;-69
2021/11/29 02:23:44;;;;;;;18.10;7.70;;;;;;;12.15;81.40;98090.83;24398;1361;3055323;-66
2021/11/29 02:26:13;;;;;;;11.10;6.70;;;;;;;11.73;82.92;98100.05;24468;1354;3026740;-71
2021/11/29 02:28:44;;;;;;;7.90;5.70;;;;;;;11.82;83.43;98088.40;24464;1353;3028630;-71
2021/11/29 02:31:15;;;;;;;10.10;7.00;;;;;;;12.31;81.44;98082.55;24458;1356;3027541;-70
2021/11/29 02:33:44;;;;;;;14.80;7.20;;;;;;;12.33;81.03;98078.34;24430;1354;3026467;-69
2021/11/29 02:36:13;;;;;;;11.90;7.00;;;;;;;12.11;81.51;98087.09;24432;1359;3026594;-66
2021/11/29 02:38:43;;;;;;;18.30;7.70;;;;;;;11.97;82.00;98084.49;24420;1354;3051619;-65
2021/11/29 02:41:12;;;;;;;8.90;6.70;;;;;;;11.74;82.97;98074.55;24428;1354;3026233;-67
2021/11/29 02:43:42;;;;;;;8.60;6.00;;;;;;;12.08;82.33;98073.19;24411;1354;3058553;-71
2021/11/29 02:46:11;;;;;;;13.50;6.90;;;;;;;12.46;80.48;98065.91;24414;1354;3026627;-69
2021/11/29 02:48:47;;;;;;;20.10;7.70;;;;;;;12.40;80.16;98065.06;24449;1360;3028613;-74
2021/11/29 02:51:20;;;;;;;22.10;7.20;;;;;;;12.09;81.54;98067.84;24429;1353;3055655;-72
2021/11/29 02:53:50;;;;;;;13.20;7.40;;;;;;;11.89;82.23;98066.02;24418;1354;3026616;-71
2021/11/29 02:56:19;;;;;;;14.10;6.30;;;;;;;11.69;83.34;98063.39;24442;1354;3027483;-68
2021/11/29 02:58:48;;;;;;;10.60;6.60;;;;;;;12.07;82.38;98062.40;24477;1357;3026520;-70
2021/11/29 03:01:17;;;;;;;11.80;6.40;;;;;;;12.24;81.33;98053.86;24449;1354;3051544;-68
2021/11/29 03:03:52;;;;;;;14.30;7.00;;;;;;;12.34;80.80;98051.00;24421;1357;3027732;-68
2021/11/29 03:06:21;;;;;;;12.20;6.50;;;;;;;12.22;81.05;98049.77;24438;1354;3055978;-69
2021/11/29 03:08:50;;;;;;;11.50;7.10;;;;;;;11.93;81.76;98054.94;24405;1357;3026509;-67
2021/11/29 03:11:20;;;;;;;9.20;6.50;;;;;;;11.82;82.77;98050.31;24466;1354;3055653;-67
2021/11/29 03:13:49;;;;;;;8.80;6.20;;;;;;;12.29;81.54;98048.34;24455;1353;3026604;-64
2021/11/29 03:16:18;;;;;;;9.20;7.00;;;;;;;12.60;79.61;98044.46;24405;1355;3051907;-70
2021/11/29 03:18:48;;;;;;;16.70;6.20;;;;;;;12.63;79.32;98036.80;24379;1354;3026589;-68
2021/11/29 03:21:19;;;;;;;17.40;7.50;;;;;;;12.38;80.01;98046.80;24446;1360;3026790;-68
2021/11/29 03:23:51;;;;;;;22.20;7.10;;;;;;;12.18;80.65;98040.53;24456;1354;3051627;-66
2021/11/29 03:26:20;;;;;;;7.30;5.30;;;;;;;12.10;80.78;98036.66;24461;1355;3026864;-74
2021/11/29 03:28:53;;;;;;;7.90;6.00;;;;;;;12.65;79.37;98045.61;24469;1353;3026515;-68
2021/11/29 03:31:23;;;;;;;16.80;7.50;;;;;;;13.01;77.82;98044.23;24439;1354;3026452;-70
2021/11/29 03:33:55;;;;;;;14.30;7.60;;;;;;;12.80;78.04;98044.76;24463;1359;3031306;-69
2021/11/29 03:36:25;;;;;;;26.60;6.00;;;;;;;12.68;78.36;98041.30;24483;1354;3027003;-67
2021/11/29 03:38:54;;;;;;;36.70;6.80;;;;;;;12.28;79.93;98045.44;24426;1361;3027637;-66
2021/11/29 03:41:24;;;;;;;7.60;5.10;;;;;;;12.13;80.56;98037.28;24439;1353;3027224;-70
2021/11/29 03:43:53;;;;;;;6.40;4.50;;;;;;;12.48;79.60;98037.46;24463;1354;3027354;-71
2021/11/29 03:46:22;;;;;;;11.30;6.40;;;;;;;12.90;77.88;98032.40;24461;1354;3026560;-71
2021/11/29 03:48:51;;;;;;;15.80;6.40;;;;;;;12.79;77.70;98036.36;24436;1351;3049060;-73
2021/11/29 03:51:21;;;;;;;15.40;7.80;;;;;;;12.42;79.08;98034.16;24402;1354;3026811;-67
2021/11/29 03:53:51;;;;;;;37.40;7.20;;;;;;;12.06;80.76;98035.25;24471;1355;3026827;-70
2021/11/29 03:56:20;;;;;;;8.80;6.20;;;;;;;12.07;80.70;98038.83;24420;1361;3026897;-66
2021/11/29 03:58:49;;;;;;;8.90;5.30;;;;;;;12.57;79.31;98036.11;24437;1354;3026320;-69
2021/11/29 04:01:18;;;;;;;12.70;6.20;;;;;;;12.89;77.74;98028.13;24427;1353;3025972;-68
2021/11/29 04:03:48;;;;;;;20.50;5.90;;;;;;;12.75;78.02;98028.81;24426;1354;3058702;-66
2021/11/29 04:06:17;;;;;;;35.30;6.70;;;;;;;12.43;79.00;98033.02;24394;1354;3026765;-67
2021/11/29 04:08:46;;;;;;;35.90;6.40;;;;;;;12.26;79.55;98039.41;24439;1354;3051570;-70
2021/11/29 04:11:15;;;;;;;7.70;5.80;;;;;;;11.93;80.83;98052.52;24463;1358;3026490;-71
2021/11/29 04:13:44;;;;;;;8.40;5.80;;;;;;;12.28;80.55;98059.78;24400;1356;3051986;-72
2021/11/29 04:16:15;;;;;;;9.10;5.30;;;;;;;12.55;79.11;98048.98;24450;1358;3028266;-67
2021/11/29 04:18:47;;;;;;;16.20;5.90;;;;;;;12.49;78.74;98042.77;24424;1353;3056484;-68
2021/11/29 04:21:17;;;;;;;21.70;9.90;;;;;;;12.08;80.17;98049.42;24406;1354;3026488;-70
2021/11/29 04:23:47;;;;;;;15.00;8.50;;;;;;;11.85;81.21;98047.83;24440;1360;3026819;-69
2021/11/29 04:26:17;;;;;;;11.40;7.60;;;;;;;11.75;81.66;98043.58;24407;1360;3026100;-73
2021/11/29 04:28:49;;;;;;;20.00;11.40;;;;;;;12.01;81.13;98042.35;24435;1354;3026896;-65
2021/11/29 04:31:18;;;;;;;25.20;13.90;;;;;;;12.16;80.26;98044.23;24464;1353;3027815;-68
2021/11/29 04:33:47;;;;;;;34.00;15.60;;;;;;;12.18;80.38;98044.02;24483;1354;3030392;-70
2021/11/29 04:36:16;;;;;;;45.20;19.10;;;;;;;11.84;81.16;98044.04;24487;1354;3067797;-68
2021/11/29 04:38:47;;;;;;;37.00;16.00;;;;;;;11.74;81.63;98029.64;24438;1359;3026886;-71
2021/11/29 04:41:16;;;;;;;34.60;16.80;;;;;;;12.07;81.08;98023.80;24453;1354;3027312;-69
2021/11/29 04:43:45;;;;;;;46.20;21.80;;;;;;;12.08;80.45;98023.65;24404;1351;3068300;-70
2021/11/29 04:46:14;;;;;;;53.40;24.40;;;;;;;12.05;80.64;98021.84;24412;1354;3026757;-72
2021/11/29 04:48:43;;;;;;;66.00;29.90;;;;;;;12.03;80.18;98026.56;24454;1361;3053605;-71
2021/11/29 04:51:12;;;;;;;69.20;30.70;;;;;;;11.66;81.96;98031.61;24419;1354;3026434;-73
2021/11/29 04:53:42;;;;;;;68.60;28.40;;;;;;;11.40;82.98;98034.20;24451;1354;3027630;-71
2021/11/29 04:56:11;;;;;;;62.10;28.80;;;;;;;11.76;82.28;98024.36;24393;1354;3026920;-73
2021/11/29 04:58:41;;;;;;;62.70;30.30;;;;;;;12.15;80.45;98011.29;24400;1354;3026566;-68
2021/11/29 05:01:11;;;;;;;83.70;35.50;;;;;;;12.05;80.14;98008.83;24458;1354;3026807;-68
2021/11/29 05:03:40;;;;;;;81.60;33.90;;;;;;;11.61;81.99;98000.92;24437;1354;3055984;-74
2021/11/29 05:06:19;;;;;;;64.70;29.50;;;;;;;11.41;82.85;97995.48;24390;1357;3055380;-72
2021/11/29 05:08:50;;;;;;;56.70;28.00;;;;;;;11.57;82.40;97991.33;24485;1354;3026338;-70
2021/11/29 05:11:19;;;;;;;65.50;32.20;;;;;;;11.79;81.31;97989.73;24450;1351;3026578;-70
2021/11/29 05:13:48;;;;;;;63.10;31.90;;;;;;;11.77;81.27;97992.70;24470;1354;3052380;-72
2021/11/29 05:16:17;;;;;;;67.30;32.00;;;;;;;11.62;81.61;97998.55;24400;1354;3026778;-71
2021/11/29 05:18:46;;;;;;;44.70;24.10;;;;;;;11.37;82.86;97996.02;24430;1354;3026886;-72
2021/11/29 05:21:25;;;;;;;41.60;23.00;;;;;;;11.89;81.06;97992.33;24458;1361;3055274;-72
2021/11/29 05:23:54;;;;;;;43.00;23.30;;;;;;;12.12;79.83;97993.18;24424;1358;3026852;-64
2021/11/29 05:26:24;;;;;;;44.50;22.80;;;;;;;11.87;80.59;97996.56;24441;1354;3050968;-74
2021/11/29 05:28:54;;;;;;;39.00;21.40;;;;;;;11.58;81.78;97991.39;24444;1354;3027333;-71
2021/11/29 05:31:24;;;;;;;24.00;14.60;;;;;;;11.54;82.34;97981.23;24453;1355;3026013;-69
2021/11/29 05:34:02;;;;;;;20.10;13.00;;;;;;;11.95;81.08;97973.18;24418;1354;3052716;-71
2021/11/29 05:36:31;;;;;;;19.60;14.10;;;;;;;12.06;80.25;97978.89;24465;1360;3026450;-70
2021/11/29 05:39:00;;;;;;;26.00;15.70;;;;;;;11.83;81.14;97988.52;24417;1351;3026634;-74
2021/11/29 05:41:29;;;;;;;27.10;15.30;;;;;;;11.60;81.95;97988.77;24558;1359;3049510;-64
2021/11/29 05:43:58;;;;;;;17.70;11.20;;;;;;;11.53;82.53;97995.69;24696;1353;3026427;-66
2021/11/29 05:46:27;;;;;;;20.40;13.10;;;;;;;11.99;81.03;97988.66;24776;1353;3058723;-71
2021/11/29 05:48:57;;;;;;;22.00;14.60;;;;;;;12.07;80.65;97988.98;24663;1359;3026946;-66
2021/11/29 05:51:26;;;;;;;26.90;15.10;;;;;;;11.90;81.14;97989.81;24514;1360;3056615;-70
2021/11/29 05:53:56;;;;;;;39.80;14.40;;;;;;;11.83;81.45;97994.95;24469;1354;3026666;-71
2021/11/29 05:56:25;;;;;;;17.80;10.20;;;;;;;11.71;81.66;97987.12;24484;1354;3028860;-67
2021/11/29 05:58:54;;;;;;;21.60;13.00;;;;;;;12.19;80.32;97981.27;24420;1359;3055103;-70
2021/11/29 06:01:24;;;;;;;23.70;15.10;;;;;;;12.24;79.52;97979.74;24415;1360;3028660;-69
2021/11/29 06:03:53;;;;;;;26.50;16.40;;;;;;;12.23;79.64;97981.61;24434;1358;3026723;-70
2021/11/29 06:06:23;;;;;;;32.40;19.60;;;;;;;12.05;80.25;97978.63;24491;1354;3026597;-71
2021/11/29 06:08:52;;;;;;;30.20;18.80;;;;;;;11.66;81.77;97983.20;24432;1358;3026730;-70
2021/11/29 06:11:21;;;;;;;29.30;17.40;;;;;;;11.64;82.01;97974.70;24399;1358;3049632;-68
2021/11/29 06:13:52;;;;;;;30.00;18.80;;;;;;;11.93;81.24;97968.30;24464;1353;3027423;-73
2021/11/29 06:16:41;;;;;;;36.60;22.40;;;;;;;12.05;80.55;97969.72;24389;1357;3051417;-67
2021/11/29 06:19:10;;;;;;;43.90;26.70;;;;;;;12.01;80.65;97978.69;24378;1355;3026306;-68
2021/11/29 06:21:39;;;;;;;45.80;26.00;;;;;;;11.93;80.74;97972.51;24466;1357;3052260;-72
2021/11/29 06:24:08;;;;;;;43.50;25.20;;;;;;;11.61;81.66;97967.61;24446;1360;3026435;-72
2021/11/29 06:26:37;;;;;;;33.50;19.20;;;;;;;11.48;82.41;97960.01;24434;1356;3051762;-71
2021/11/29 06:29:07;;;;;;;35.00;20.40;;;;;;;12.11;80.35;97949.67;24430;1360;3026324;-72
2021/11/29 06:31:36;;;;;;;36.50;20.60;;;;;;;11.96;80.05;97951.26;24251;1360;3296268;-64
2021/11/29 06:34:05;;;;;;;33.30;20.50;;;;;;;12.01;79.58;97947.74;24381;1355;3048561;-70
2021/11/29 06:36:35;;;;;;;32.10;20.40;;;;;;;11.91;79.56;97952.33;24469;1357;3026607;-75
2021/11/29 06:39:04;;;;;;;24.10;16.60;;;;;;;11.57;80.62;97958.85;24404;1360;3026445;-72
2021/11/29 06:41:34;;;;;;;18.40;10.50;;;;;;;11.18;82.19;97962.07;24414;1360;3051693;-69
2021/11/29 06:44:03;;;;;;;22.00;12.70;;;;;;;11.62;81.07;97958.13;24449;1356;3026871;-72
2021/11/29 06:46:32;;;;;;;24.60;12.80;;;;;;;11.59;80.40;97957.14;24452;1356;3058493;-70
2021/11/29 06:49:02;;;;;;;20.30;12.80;;;;;;;11.42;81.06;97956.11;24432;1354;3025944;-72
2021/11/29 06:51:33;;;;;;;17.40;11.50;;;;;;;11.17;82.09;97959.70;24457;1357;3026993;-69
2021/11/29 06:54:02;;;;;;;17.90;11.30;;;;;;;11.15;82.08;97965.91;24531;1357;3060945;-69
2021/11/29 06:56:31;;;;;;;11.80;6.90;;;;;;;11.15;82.41;97964.69;24376;1356;3026702;-67
2021/11/29 06:59:00;;;;;;;15.50;7.80;;;;;;;11.47;81.39;97953.91;24479;1360;3053122;-68
2021/11/29 07:01:31;;;;;;;10.40;6.50;;;;;;;11.74;79.65;97953.66;24420;1357;3029941;-68
2021/11/29 07:04:00;;;;;;;16.10;5.90;;;;;;;11.31;81.11;97958.92;24432;1357;3026126;-70
2021/11/29 07:06:30;;;;;;;6.90;5.60;;;;;;;11.27;81.18;97951.50;24445;1360;3051872;-69
2021/11/29 07:09:00;;;;;;;9.90;5.80;;;;;;;11.05;81.98;97953.91;24499;1358;3027407;-67
2021/11/29 07:11:29;;;;;;;5.70;4.20;;;;;;;10.92;82.96;97959.44;24441;1361;3030166;-73
2021/11/29 07:13:58;;;;;;;7.10;4.80;;;;;;;11.23;81.87;97952.90;24450;1356;3026521;-67
2021/11/29 07:16:27;;;;;;;9.30;5.80;;;;;;;11.32;81.01;97943.67;24440;1363;3058339;-67
2021/11/29 07:18:56;;;;;;;9.70;5.90;;;;;;;11.28;81.12;97941.95;24418;1356;3026991;-69
2021/11/29 07:21:25;;;;;;;9.80;6.70;;;;;;;11.06;82.23;97946.53;24415;1363;3051841;-70
2021/11/29 07:23:54;;;;;;;8.80;6.60;;;;;;;11.06;82.06;97947.23;24442;1360;3026198;-67
2021/11/29 07:26:24;;;;;;;9.20;5.60;;;;;;;10.84;82.94;97947.28;24443;1362;3054290;-67
2021/11/29 07:28:53;;;;;;;10.80;6.40;;;;;;;11.24;81.95;97934.96;24425;1357;3027808;-66
2021/11/29 07:31:22;;;;;;;10.80;6.90;;;;;;;11.38;80.83;97932.45;24439;1357;3026895;-68
2021/11/29 07:33:51;;;;;;;9.40;7.10;;;;;;;11.51;80.49;97927.42;24460;1354;3055227;-72
2021/11/29 07:36:20;;;;;;;11.50;8.30;;;;;;;11.27;80.92;97925.05;24457;1355;3026384;-71
2021/11/29 07:38:49;;;;;;;19.20;9.20;;;;;;;11.07;81.86;97918.02;24467;1358;3048293;-70
2021/11/29 07:41:19;;;;;;;12.50;7.30;;;;;;;10.97;82.35;97910.26;24478;1359;3026316;-70
2021/11/29 07:43:48;;;;;;;10.90;7.80;;;;;;;11.55;80.40;97902.93;24414;1354;3027546;-70
2021/11/29 07:46:18;;;;;;;17.10;11.40;;;;;;;11.71;78.94;97903.24;24473;1359;3026775;-71
2021/11/29 07:48:47;;;;;;;13.60;10.20;;;;;;;11.48;79.51;97897.41;24416;1361;3028614;-73
2021/11/29 07:51:16;;;;;;;17.00;10.00;;;;;;;11.22;80.19;97895.83;24472;1358;3026978;-69
2021/11/29 07:53:46;;;;;;;14.40;9.60;;;;;;;11.14;80.64;97890.56;24461;1362;3059082;-71
2021/11/29 07:56:15;;;;;;;12.50;7.40;;;;;;;11.01;81.31;97887.77;24443;1361;3027792;-69
2021/11/29 07:58:44;;;;;;;13.60;8.60;;;;;;;11.42;80.38;97883.02;24537;1356;3026604;-65
2021/11/29 08:01:15;;;;;;;15.60;9.90;;;;;;;11.72;78.71;97887.92;24473;1360;3029002;-69
2021/11/29 08:03:44;;;;;;;14.60;9.80;;;;;;;11.50;79.31;97894.79;24470;1361;3026609;-69
2021/11/29 08:06:15;;;;;;;15.70;9.60;;;;;;;11.34;80.12;97883.73;24471;1355;3026685;-68
2021/11/29 08:08:44;;;;;;;16.20;9.60;;;;;;;11.12;80.77;97889.52;24441;1361;3029102;-69
2021/11/29 08:11:14;;;;;;;13.50;7.10;;;;;;;11.05;81.25;97887.20;24473;1359;3068600;-71
2021/11/29 08:14:02;;;;;;;13.40;7.80;;;;;;;11.23;80.86;97879.15;24427;1361;3052063;-69
2021/11/29 08:16:31;;;;;;;10.90;7.40;;;;;;;11.52;79.50;97883.95;24472;1355;3026414;-69
2021/11/29 08:19:01;;;;;;;9.20;6.40;;;;;;;11.55;78.97;97872.09;24431;1357;3027228;-67
2021/11/29 08:21:30;;;;;;;12.10;8.50;;;;;;;11.25;79.59;97865.59;24491;1356;3026660;-70
2021/11/29 08:23:59;;;;;;;13.40;5.60;;;;;;;11.14;80.61;97856.64;24397;1356;3053049;-69
2021/11/29 08:26:28;;;;;;;9.10;6.20;;;;;;;11.58;79.39;97841.00;24445;1359;3027043;-64
2021/11/29 08:28:57;;;;;;;14.00;7.00;;;;;;;11.77;78.42;97837.06;24429;1358;3051368;-71
2021/11/29 08:31:26;;;;;;;7.50;5.70;;;;;;;11.62;78.68;97836.34;24409;1360;3026637;-66
2021/11/29 08:33:55;;;;;;;10.90;6.10;;;;;;;11.48;78.98;97839.40;24491;1359;3068486;-68
2021/11/29 08:36:24;;;;;;;8.40;5.40;;;;;;;11.12;80.54;97845.90;24464;1359;3025856;-68
2021/11/29 08:38:53;;;;;;;8.00;4.30;;;;;;;11.02;81.65;97845.54;24468;1361;3053939;-73
2021/11/29 08:41:23;;;;;;;11.40;4.90;;;;;;;11.33;80.51;97837.95;24454;1358;3026852;-68
2021/11/29 08:43:53;;;;;;;7.80;5.00;;;;;;;11.51;79.74;97824.20;24393;1355;3026890;-72
2021/11/29 08:46:23;;;;;;;9.10;6.30;;;;;;;11.36;80.13;97822.95;24537;1361;3026857;-75
2021/11/29 08:48:52;;;;;;;8.80;5.90;;;;;;;11.29;80.65;97819.65;24413;1361;3026435;-69
2021/11/29 08:51:21;;;;;;;13.30;6.50;;;;;;;11.16;80.99;97813.30;24394;1360;3026445;-67
2021/11/29 08:53:51;;;;;;;14.90;6.60;;;;;;;11.12;81.24;97800.16;24436;1360;3051822;-72
2021/11/29 08:56:20;;;;;;;14.80;7.10;;;;;;;11.56;80.01;97791.88;24469;1354;3028338;-70
2021/11/29 08:58:49;;;;;;;13.60;7.60;;;;;;;11.73;78.58;97785.27;24489;1356;3026834;-69
2021/11/29 09:01:18;;;;;;;16.20;9.10;;;;;;;11.49;78.45;97792.14;24473;1355;3026632;-71
2021/11/29 09:03:48;;;;;;;20.40;10.30;;;;;;;11.28;78.90;97783.52;24453;1359;3054953;-71
2021/11/29 09:06:18;;;;;;;20.50;9.60;;;;;;;11.05;80.02;97775.41;24420;1358;3026338;-68
2021/11/29 09:08:48;;;;;;;19.10;7.60;;;;;;;11.27;78.94;97761.48;24470;1359;3026492;-69
2021/11/29 09:11:17;;;;;;;22.00;9.70;;;;;;;11.60;78.16;97760.48;24436;1358;3026906;-75
2021/11/29 09:13:46;;;;;;;20.00;9.10;;;;;;;11.77;77.87;97758.94;24456;1361;3054727;-72
2021/11/29 09:16:16;;;;;;;22.30;8.40;;;;;;;11.65;77.47;97750.36;24455;1357;3026558;-71
2021/11/29 09:18:45;;;;;;;18.70;8.80;;;;;;;11.51;78.20;97742.90;24412;1356;3052839;-70
2021/11/29 09:21:15;;;;;;;22.30;8.70;;;;;;;11.41;78.66;97732.20;24495;1355;3026714;-75
2021/11/29 09:23:45;;;;;;;14.40;6.70;;;;;;;11.41;78.86;97721.30;24406;1361;3026715;-74
2021/11/29 09:26:14;;;;;;;16.30;6.60;;;;;;;11.92;77.80;97704.89;24410;1361;3027028;-72
2021/11/29 09:28:43;;;;;;;14.10;6.70;;;;;;;12.32;76.05;97696.89;24460;1361;3026986;-69
2021/11/29 09:31:13;;;;;;;12.10;6.60;;;;;;;12.27;75.78;97682.64;24491;1359;3026767;-70
2021/11/29 09:33:42;;;;;;;14.10;7.10;;;;;;;12.03;76.67;97670.30;24469;1360;3026598;-74
2021/11/29 09:36:11;;;;;;;10.80;6.70;;;;;;;11.84;77.47;97664.75;24480;1363;3052467;-66
2021/11/29 09:38:40;;;;;;;11.40;5.50;;;;;;;11.74;78.14;97665.88;24468;1360;3027330;-66
2021/11/29 09:41:09;;;;;;;8.00;4.40;;;;;;;12.11;76.98;97661.48;24413;1361;3052398;-71
2021/11/29 09:43:39;;;;;;;9.60;5.10;;;;;;;12.55;75.45;97651.91;24468;1361;3027196;-71
2021/11/29 09:46:09;;;;;;;12.90;7.20;;;;;;;12.46;75.40;97643.96;24438;1357;3026959;-73
2021/11/29 09:48:38;;;;;;;19.30;9.20;;;;;;;12.38;75.57;97633.98;24438;1356;3026617;-70
2021/11/29 09:51:16;;;;;;;15.50;7.40;;;;;;;12.17;76.30;97628.71;24495;1361;3055417;-68
2021/11/29 09:53:45;;;;;;;10.10;5.20;;;;;;;11.93;77.20;97623.71;24466;1361;3026858;-73
2021/11/29 09:56:14;;;;;;;9.80;5.60;;;;;;;11.73;77.83;97619.61;24421;1363;3026556;-71
2021/11/29 09:58:48;;;;;;;8.80;4.30;;;;;;;12.29;76.53;97607.45;24461;1362;3052320;-69
2021/11/29 10:01:17;;;;;;;11.00;4.90;;;;;;;12.63;74.69;97595.20;24437;1362;3026018;-70
2021/11/29 10:03:46;;;;;;;13.90;4.90;;;;;;;12.47;75.16;97584.20;24448;1358;3026140;-69
2021/11/29 10:06:16;;;;;;;8.50;4.40;;;;;;;12.21;75.87;97575.24;24471;1355;3054718;-70
2021/11/29 10:08:45;;;;;;;8.10;3.90;;;;;;;12.06;76.43;97575.17;24441;1362;3028759;-72
2021/11/29 10:11:16;;;;;;;8.00;4.20;;;;;;;11.90;77.05;97570.37;24487;1360;3051158;-68
2021/11/29 10:14:01;;;;;;;7.40;2.50;;;;;;;11.66;78.10;97572.48;24444;1354;3030735;-71
2021/11/29 10:16:39;;;;;;;;;;;;;;;12.21;76.62;97558.98;24449;1361;3052598;-67
2021/11/29 10:19:23;;;;;;;7.60;3.70;;;;;;;12.19;76.05;97566.38;24404;1360;3058278;-71
2021/11/29 10:21:52;;;;;;;9.50;4.50;;;;;;;11.85;77.65;97562.71;24392;1357;3050333;-70
2021/11/29 10:24:22;;;;;;;16.20;4.50;;;;;;;11.73;78.50;97567.55;24592;1359;3026600;-67
2021/11/29 10:26:53;;;;;;;8.70;3.80;;;;;;;11.51;79.98;97553.35;24507;1361;3057278;-72
2021/11/29 10:29:26;;;;;;;14.80;4.00;;;;;;;11.50;79.97;97536.40;24412;1362;3026190;-68
2021/11/29 10:31:56;;;;;;;7.30;3.40;;;;;;;11.81;79.78;97535.02;24415;1357;3026971;-68
2021/11/29 10:34:28;;;;;;;11.40;4.30;;;;;;;12.16;78.75;97534.90;24451;1359;3026584;-69
2021/11/29 10:37:11;;;;;;;13.60;5.10;;;;;;;11.95;79.21;97529.13;24444;1359;3027438;-72
2021/11/29 10:39:45;;;;;;;13.30;5.70;;;;;;;11.86;79.67;97519.81;24468;1363;3051980;-68
2021/11/29 10:42:15;;;;;;;9.20;3.90;;;;;;;11.70;80.49;97502.93;24484;1362;3026814;-67
2021/11/29 10:44:45;;;;;;;10.00;3.80;;;;;;;12.09;79.58;97479.27;24448;1361;3026171;-71
2021/11/29 10:47:16;;;;;;;15.30;5.60;;;;;;;12.30;78.71;97465.02;24436;1352;3026267;-66
2021/11/29 10:49:51;;;;;;;11.30;4.90;;;;;;;12.27;78.98;97447.98;24437;1361;3030508;-69
2021/11/29 10:52:24;;;;;;;18.90;5.40;;;;;;;12.20;79.39;97441.48;24431;1363;3054717;-71
2021/11/29 10:54:53;;;;;;;14.60;4.70;;;;;;;12.10;79.94;97429.25;24476;1357;3027143;-70
2021/11/29 10:57:23;;;;;;;12.10;4.20;;;;;;;12.61;78.25;97417.74;24465;1361;3027041;-70
2021/11/29 10:59:54;;;;;;;12.80;4.60;;;;;;;12.77;77.26;97407.61;24440;1360;3030919;-73
2021/11/29 11:02:25;;;;;;;19.10;6.10;;;;;;;12.81;77.24;97404.77;24459;1360;3030219;-67
2021/11/29 11:05:06;;;;;;;19.90;5.80;;;;;;;12.59;78.24;97391.55;24451;1363;3026334;-71
2021/11/29 11:07:37;;;;;;;21.70;6.90;;;;;;;12.44;78.64;97381.33;24398;1360;3057879;-70
2021/11/29 11:10:13;;;;;;;17.50;5.60;;;;;;;12.31;79.34;97376.89;24433;1357;3026685;-68
2021/11/29 11:12:42;;;;;;;19.70;6.00;;;;;;;12.77;77.98;97378.66;24517;1361;3051873;-71
2021/11/29 11:15:19;;;;;;;15.70;4.40;;;;;;;12.77;77.38;97396.75;24490;1362;3028373;-69
2021/11/29 11:17:53;;;;;;;15.40;3.90;;;;;;;12.68;77.24;97377.96;24451;1360;3071030;-66
2021/11/29 11:20:22;;;;;;;13.10;3.90;;;;;;;12.54;77.31;97370.36;24468;1359;3049531;-74
2021/11/29 11:22:52;;;;;;;10.40;4.10;;;;;;;12.44;77.44;97349.21;24429;1362;3026173;-72
2021/11/29 11:25:24;;;;;;;14.50;3.70;;;;;;;12.41;77.40;97347.78;24526;1360;3027706;-70